Track Мизонов Сергей

Time Latitude Longitude Accuracy (66% radius in meters) Altitude (meters) Speed (km/hour) Bearing (degrees) Battery (%) GPS flag
08:55:34 60.370984 29.556343 8 76.885761367092 0.23859658837318 262.85794067383 90 1 delete
08:55:25 60.370979 29.556364 4 76.835184286666 0.021656164899468 89.911827087402 90 1 delete
08:55:13 60.370966 29.556364 4 76.794948371194 0.021124392747879 89.911827087402 90 1 delete
08:55:01 60.370965 29.556405 4 76.841891330302 0.017209436744452 89.911827087402 90 1 delete
08:54:49 60.370935 29.556398 4 77.00172172011 0.020538404583931 89.911827087402 90 1 delete
08:54:37 60.370922 29.556315 6 77.256415533359 0.013441487215459 89.911827087402 90 1 delete
08:54:28 60.370923 29.556315 4 77.32837268112 0.034168481826782 89.911827087402 90 1 delete
08:54:16 60.370928 29.556368 6 77.834984269069 0.10009194910526 89.911827087402 90 1 delete
08:54:10 60.370944 29.556367 4 78.160367064814 0.013397304341197 89.911827087402 90 1 delete
08:54:04 60.370967 29.556372 4 78.255269346598 0.034318573772907 89.911827087402 90 1 delete
08:53:52 60.370997 29.556389 4 78.172697763786 0.023497998714447 89.911827087402 90 1 delete
08:53:43 60.371017 29.556415 6 78.005504784423 0.0308937728405 89.911827087402 90 1 delete
08:53:31 60.370994 29.556403 6 77.797366286907 0.0034240591339767 89.911827087402 90 1 delete
08:53:18 60.370988 29.556295 6 77.768466261098 0.043266855180264 89.911827087402 90 1 delete
08:53:06 60.370972 29.556333 6 77.717695693309 0.081804215908051 89.911827087402 90 1 delete
08:52:54 60.370961 29.556339 8 77.957117310178 0.047714222222567 89.911827087402 90 1 delete
08:52:42 60.370959 29.556365 6 78.273789321187 0.057207759469748 89.911827087402 90 1 delete
08:52:33 60.370956 29.556387 6 78.32976048129 0.12034019827843 89.911827087402 90 1 delete
08:52:21 60.370980 29.556352 6 78.384643427039 0.011519870720804 89.911827087402 90 1 delete
08:52:09 60.370984 29.556370 12 77.937856339351 0.10432905703783 89.911827087402 90 1 delete
08:51:57 60.370992 29.556374 6 77.758217628776 0.050856325775385 89.911827087402 90 1 delete
08:51:45 60.370980 29.556381 6 77.763253502747 0.0063808062113822 89.911827087402 90 1 delete
08:51:36 60.370960 29.556386 6 77.821406058548 0.038200981914997 89.911827087402 90 1 delete
08:51:33 60.370960 29.556365 8 77.831064898922 0.051269117742777 89.911827087402 90 1 delete
08:51:24 60.370987 29.556305 6 78.025738140493 0.02729881182313 89.911827087402 90 1 delete
08:51:15 60.371010 29.556343 6 78.153707949496 0.086029887199402 89.911827087402 90 1 delete
08:51:12 60.371001 29.556347 6 78.206582044635 0.049925871193409 89.911827087402 90 1 delete
08:51:00 60.370982 29.556374 6 78.430992345225 0.024757638573647 89.911827087402 90 1 delete
08:50:51 60.370967 29.556396 4 78.709315190086 0.034018307924271 89.911827087402 90 1 delete
08:50:39 60.370954 29.556376 4 78.896613851508 0.026632444933057 89.911827087402 90 1 delete
08:50:27 60.370976 29.556375 4 79.057140812041 0.04576401039958 89.911827087402 90 1 delete
08:50:15 60.370985 29.556381 4 79.142099303211 0.021018594503403 89.911827087402 90 1 delete
08:50:03 60.370985 29.556393 6 79.215876050894 0.0075942780822515 89.911827087402 90 1 delete
08:49:54 60.370956 29.556422 6 79.240339644554 0.010034235194325 89.911827087402 90 1 delete
08:49:42 60.370941 29.556443 6 79.438225044908 0.024585613980889 89.911827087402 90 1 delete
08:49:30 60.370947 29.556460 6 79.618644669696 0.031853832304478 89.911827087402 90 1 delete
08:49:21 60.370964 29.556382 6 79.799176588944 0.02060310356319 89.911827087402 90 1 delete
08:49:18 60.370961 29.556329 6 79.858955398481 0.095314130187035 89.911827087402 90 1 delete
08:49:06 60.370957 29.556248 6 79.345948157661 0.02243303693831 89.911827087402 90 1 delete
08:48:57 60.370960 29.556260 6 79.053763969716 0.021044202148914 89.911827087402 90 1 delete
08:48:54 60.370955 29.556284 6 78.991020066811 0.0083669060841203 89.911827087402 90 1 delete
08:48:45 60.370974 29.556390 6 78.863563852442 0.05061200261116 89.911827087402 90 1 delete
08:48:33 60.370958 29.556435 4 78.957886437231 0.19661541283131 89.911827087402 90 1 delete
08:48:21 60.370946 29.556388 4 79.310890525266 0.035657253116369 89.911827087402 90 1 delete
08:48:12 60.370973 29.556384 6 79.67407386519 0.24767225980759 129.71826171875 90 1 delete
08:48:00 60.371021 29.556376 6 80.286777817316 0.28841665387154 9.9346494674683 90 1 delete
08:47:48 60.371012 29.556379 12 80.636788725689 0.5544695854187 50.119976043701 90 1 delete
08:47:36 60.371010 29.556370 6 80.397495770915 0.018842758610845 198.32844543457 90 1 delete
08:47:24 60.371023 29.556383 6 80.351733913999 0.05829144641757 198.32844543457 90 1 delete
08:47:15 60.371028 29.556391 6 80.330000504054 0.035809103399515 198.32844543457 90 1 delete